Time;durP1;ratioP1;P1;durP2;ratioP2;P2;SDS_P1;SDS_P2;PMS_P1;PMS_P2;Temp;Humidity;BMP_temperature;BMP_pressure;BME280_temperature;BME280_humidity;BME280_pressure;Samples;Min_cycle;Max_cycle;Signal;HPM_P1;HPM_P2
2022/08/22 00:00:24;;;;;;;5.72;1.60;;;21.40;79.00;;;;;;5086058;28;20035;-84
2022/08/22 00:02:50;;;;;;;6.50;2.05;;;;;;;;;;5080925;28;20029;-83
2022/08/22 00:05:31;;;;;;;5.80;1.90;;;21.30;79.90;;;;;;5069473;28;20023;-85
2022/08/22 00:08:22;;;;;;;7.32;1.92;;;21.20;80.40;;;;;;5062595;28;20029;-83
2022/08/22 00:11:00;;;;;;;4.13;1.83;;;21.20;80.80;;;;;;5063229;28;20471;-85
2022/08/22 00:13:41;;;;;;;5.85;2.05;;;21.20;81.00;;;;;;5062934;28;20025;-84
2022/08/22 00:16:19;;;;;;;5.28;2.10;;;21.10;81.10;;;;;;5067028;28;20480;-84
2022/08/22 00:18:45;;;;;;;4.45;2.30;;;;;;;;;;5068655;28;20021;-84
2022/08/22 00:21:11;;;;;;;3.55;1.88;;;;;;;;;;5086990;28;20040;-84
2022/08/22 00:24:05;;;;;;;5.20;2.20;;;21.00;81.70;;;;;;5067877;28;20013;-84
2022/08/22 00:27:03;;;;;;;3.33;1.75;;;21.00;82.00;;;;;;5049721;28;20040;-84
2022/08/22 00:29:54;;;;;;;4.82;1.92;;;21.00;82.30;;;;;;5082286;28;20028;-86
2022/08/22 00:32:25;;;;;;;6.93;1.83;;;;;;;;;;5081697;28;20473;-81
2022/08/22 00:34:55;;;;;;;5.65;1.88;;;;;;;;;;5086440;28;20029;-86
2022/08/22 00:37:33;;;;;;;5.50;1.93;;;20.90;82.90;;;;;;5075757;28;20024;-87
2022/08/22 00:40:14;;;;;;;5.40;2.00;;;20.80;83.00;;;;;;5068739;28;20281;-84
2022/08/22 00:42:43;;;;;;;6.47;2.42;;;20.80;83.20;;;;;;5066264;28;20027;-83
2022/08/22 00:45:31;;;;;;;5.65;2.30;;;20.70;83.50;;;;;;5071237;28;20024;-83
2022/08/22 00:47:57;;;;;;;5.53;2.10;;;;;;;;;;5079939;28;20047;-85
2022/08/22 00:50:48;;;;;;;4.88;1.70;;;20.70;84.00;;;;;;5075860;28;20032;-84
2022/08/22 00:53:28;;;;;;;6.45;2.00;;;20.60;84.10;;;;;;5068979;28;20044;-83
2022/08/22 00:56:32;;;;;;;3.72;1.70;;;20.50;84.70;;;;;;5062016;28;20028;-85
2022/08/22 00:58:58;;;;;;;5.22;1.60;;;;;;;;;;5044768;28;20040;-85
2022/08/22 01:01:34;;;;;;;6.47;2.42;;;20.40;85.50;;;;;;5069821;28;20024;-86
2022/08/22 01:04:27;;;;;;;5.55;2.17;;;20.40;85.80;;;;;;5089366;28;20016;-85
2022/08/22 01:07:33;;;;;;;6.25;2.00;;;20.30;85.70;;;;;;5073467;28;20048;-84
2022/08/22 01:10:40;;;;;;;3.38;1.52;;;20.30;86.30;;;;;;5034872;28;20078;-84
2022/08/22 01:13:19;;;;;;;4.35;1.80;;;;;;;;;;5074444;28;20028;-85
2022/08/22 01:15:49;;;;;;;4.75;1.60;;;20.10;87.30;;;;;;5089211;28;20389;-85
2022/08/22 01:18:34;;;;;;;4.85;2.00;;;20.10;87.30;;;;;;5072133;28;20020;-84
2022/08/22 01:21:13;;;;;;;4.30;1.85;;;;;;;;;;5089069;28;20024;-86
2022/08/22 01:24:16;;;;;;;4.88;1.73;;;20.00;88.10;;;;;;5086092;28;20037;-83
2022/08/22 01:27:11;;;;;;;5.57;1.95;;;20.00;89.20;;;;;;5078038;28;20035;-87
2022/08/22 01:30:04;;;;;;;7.28;2.20;;;19.90;89.30;;;;;;5083137;28;20020;-86
2022/08/22 01:32:42;;;;;;;5.65;2.17;;;19.90;89.90;;;;;;5082994;28;20033;-85
2022/08/22 01:35:08;;;;;;;5.55;2.15;;;;;;;;;;5072091;28;20048;-82
2022/08/22 01:38:05;;;;;;;4.50;2.08;;;19.80;90.20;;;;;;5072029;28;20036;-84
2022/08/22 01:40:43;;;;;;;3.83;1.60;;;19.80;90.40;;;;;;5068618;28;20017;-82
2022/08/22 01:43:22;;;;;;;6.80;1.98;;;19.70;90.30;;;;;;5090256;28;20035;-84
2022/08/22 01:46:20;;;;;;;4.13;1.67;;;19.70;90.80;;;;;;5086789;28;20035;-85
2022/08/22 01:48:52;;;;;;;4.20;2.00;;;19.70;91.60;;;;;;5067471;28;20035;-83
2022/08/22 01:51:26;;;;;;;4.60;1.90;;;19.60;91.90;;;;;;5087327;28;20044;-86
2022/08/22 01:54:33;;;;;;;6.97;2.10;;;19.60;92.10;;;;;;5071118;28;20133;-85
2022/08/22 01:57:07;;;;;;;8.40;2.72;;;19.60;92.00;;;;;;5008114;28;20060;-86
2022/08/22 01:59:48;;;;;;;5.90;1.95;;;19.60;91.80;;;;;;5007828;28;20030;-85
2022/08/22 02:02:23;;;;;;;4.40;1.65;;;19.50;92.00;;;;;;5028553;28;20100;-84
2022/08/22 02:04:58;;;;;;;5.60;1.88;;;;;;;;;;5072225;28;20025;-84
2022/08/22 02:07:53;;;;;;;4.68;1.73;;;19.50;92.50;;;;;;5077248;28;20028;-86
2022/08/22 02:10:58;;;;;;;6.40;2.80;;;19.50;92.50;;;;;;5058280;28;20059;-83
2022/08/22 02:14:01;;;;;;;5.50;2.22;;;19.40;93.10;;;;;;5072270;28;20536;-83
2022/08/22 02:16:27;;;;;;;5.15;2.22;;;;;;;;;;5071120;28;20108;-87
2022/08/22 02:19:26;;;;;;;6.75;2.33;;;19.40;93.70;;;;;;5071774;28;20051;-87
2022/08/22 02:21:52;;;;;;;5.80;2.20;;;;;;;;;;5085651;28;20021;-85
2022/08/22 02:24:28;;;;;;;4.10;2.35;;;19.30;94.00;;;;;;5082570;28;20032;-85
2022/08/22 02:27:31;;;;;;;8.07;2.03;;;19.30;94.10;;;;;;5064903;28;20036;-85
2022/08/22 02:30:06;;;;;;;3.33;1.80;;;;;;;;;;5051826;28;20101;-85
2022/08/22 02:32:41;;;;;;;4.18;1.73;;;;;;;;;;5074117;28;20060;-87
2022/08/22 02:35:36;;;;;;;4.03;1.80;;;19.10;94.40;;;;;;5076036;28;20055;-84
2022/08/22 02:38:06;;;;;;;3.97;1.75;;;;;;;;;;5059047;28;20024;-83
2022/08/22 02:40:52;;;;;;;3.92;1.70;;;18.90;95.20;;;;;;5069455;28;20024;-85
2022/08/22 02:43:23;;;;;;;4.80;1.90;;;18.90;95.60;;;;;;5077038;28;20053;-86
2022/08/22 02:46:16;;;;;;;3.22;1.65;;;18.80;95.90;;;;;;5067271;28;20028;-86
2022/08/22 02:48:42;;;;;;;5.70;2.10;;;;;;;;;;5083702;28;20373;-86
2022/08/22 02:51:40;;;;;;;6.78;1.92;;;18.70;96.60;;;;;;5068069;28;20985;-85
2022/08/22 02:54:29;;;;;;;4.00;1.80;;;18.60;97.00;;;;;;5066178;28;20035;-86
2022/08/22 02:57:07;;;;;;;4.45;1.75;;;18.60;97.30;;;;;;5082223;28;20041;-86
2022/08/22 03:00:13;;;;;;;6.13;1.90;;;18.50;97.30;;;;;;5064697;28;20013;-85
2022/08/22 03:02:58;;;;;;;5.30;2.20;;;18.50;97.70;;;;;;5065577;28;20135;-82
2022/08/22 03:05:49;;;;;;;6.53;1.83;;;18.40;98.30;;;;;;5051765;28;20029;-84
2022/08/22 03:08:24;;;;;;;6.90;2.17;;;18.30;98.30;;;;;;5077297;28;20028;-86
2022/08/22 03:11:19;;;;;;;6.05;2.20;;;18.20;98.70;;;;;;5063946;28;20052;-85
2022/08/22 03:13:54;;;;;;;6.63;2.35;;;18.30;98.90;;;;;;5063811;28;20024;-84
2022/08/22 03:16:32;;;;;;;5.35;1.80;;;18.20;99.10;;;;;;5068229;28;20028;-83
2022/08/22 03:19:20;;;;;;;7.45;2.40;;;18.10;99.70;;;;;;5068563;28;20499;-83
2022/08/22 03:22:25;;;;;;;5.15;1.80;;;18.10;99.90;;;;;;5065096;28;20354;-84
2022/08/22 03:25:10;;;;;;;5.53;1.55;;;;;;;;;;5039688;28;20036;-82
2022/08/22 03:27:42;;;;;;;7.40;1.85;;;18.00;99.90;;;;;;5058391;28;20416;-85
2022/08/22 03:30:15;;;;;;;5.13;2.10;;;18.00;99.90;;;;;;5058926;28;20491;-85
2022/08/22 03:33:22;;;;;;;5.97;2.20;;;18.00;99.90;;;;;;5062148;28;20028;-84
2022/08/22 03:35:48;;;;;;;3.85;1.75;;;;;;;;;;5068993;28;20032;-83
2022/08/22 03:38:20;;;;;;;5.88;1.92;;;17.90;99.90;;;;;;5064117;28;20025;-85
2022/08/22 03:41:14;;;;;;;6.25;2.15;;;17.90;99.90;;;;;;5067116;28;20087;-84
2022/08/22 03:44:33;;;;;;;4.80;2.17;;;17.90;99.90;;;;;;5076021;28;20059;-84
2022/08/22 03:47:02;;;;;;;7.75;2.10;;;;;;;;;;5022788;28;20021;-85
2022/08/22 03:50:12;;;;;;;5.60;2.15;;;17.80;99.90;;;;;;5029655;28;20036;-84
2022/08/22 03:53:15;;;;;;;4.38;1.80;;;17.80;99.90;;;;;;4973050;28;20038;-84
2022/08/22 03:56:00;;;;;;;5.65;2.10;;;17.80;99.90;;;;;;5061551;28;20033;-85
2022/08/22 03:58:54;;;;;;;5.88;2.10;;;17.80;99.90;;;;;;5055739;28;20573;-84
2022/08/22 04:01:41;;;;;;;3.90;2.05;;;17.80;99.90;;;;;;5079625;28;20088;-86
2022/08/22 04:04:19;;;;;;;5.35;1.83;;;17.70;99.90;;;;;;5078530;28;20032;-81
2022/08/22 04:06:59;;;;;;;3.67;1.88;;;17.70;99.90;;;;;;5059453;28;20024;-85
2022/08/22 04:09:44;;;;;;;5.82;2.10;;;17.60;99.90;;;;;;5051341;28;20020;-83
2022/08/22 04:12:28;;;;;;;6.13;2.17;;;17.60;99.90;;;;;;5065607;28;20029;-84
2022/08/22 04:14:59;;;;;;;6.47;2.20;;;17.50;99.90;;;;;;5060881;28;20051;-81
2022/08/22 04:17:56;;;;;;;5.50;1.80;;;17.50;99.90;;;;;;5064644;28;20511;-81
2022/08/22 04:20:59;;;;;;;5.53;2.10;;;17.50;99.90;;;;;;5054600;28;20029;-85
2022/08/22 04:23:52;;;;;;;3.00;1.70;;;17.40;99.90;;;;;;5042171;28;20017;-85
2022/08/22 04:26:27;;;;;;;4.57;1.88;;;17.30;99.90;;;;;;5054061;28;20477;-85
2022/08/22 04:29:21;;;;;;;7.78;2.03;;;17.30;99.90;;;;;;5052286;28;20037;-81
2022/08/22 04:31:59;;;;;;;4.57;1.70;;;17.30;99.90;;;;;;5039168;28;20100;-82
2022/08/22 04:34:38;;;;;;;6.25;2.20;;;17.30;99.90;;;;;;5060723;28;20021;-84
2022/08/22 04:37:15;;;;;;;5.60;1.70;;;17.30;99.90;;;;;;5065386;28;20059;-82
2022/08/22 04:39:50;;;;;;;4.53;1.63;;;17.30;99.90;;;;;;5046966;28;20048;-84
2022/08/22 04:42:26;;;;;;;5.93;2.05;;;17.20;99.90;;;;;;5040332;28;20021;-85
2022/08/22 04:45:07;;;;;;;7.53;2.63;;;17.20;99.90;;;;;;5050638;28;20031;-86
2022/08/22 04:47:41;;;;;;;;;;;17.20;99.90;;;;;;5060496;28;20032;-85
2022/08/22 04:50:22;;;;;;;4.78;1.90;;;17.20;99.90;;;;;;5075137;28;19935;-85
2022/08/22 04:52:48;;;;;;;3.10;2.13;;;;;;;;;;5059337;28;20024;-86
2022/08/22 04:55:39;;;;;;;6.30;2.28;;;17.20;99.90;;;;;;5048724;28;20024;-86
2022/08/22 04:58:07;;;;;;;;;;;17.20;99.90;;;;;;5058445;28;20021;-83
2022/08/22 05:00:50;;;;;;;4.07;2.03;;;17.10;99.90;;;;;;5065242;28;19904;-83
2022/08/22 05:03:16;;;;;;;5.88;2.00;;;;;;;;;;5078350;28;20531;-84
2022/08/22 05:05:48;;;;;;;4.50;1.90;;;17.00;99.90;;;;;;5076482;28;20036;-83
2022/08/22 05:08:29;;;;;;;5.18;1.90;;;17.10;99.90;;;;;;5061392;28;20064;-84
2022/08/22 05:10:55;;;;;;;4.35;1.95;;;17.00;99.90;;;;;;5063690;28;20025;-85
2022/08/22 05:13:29;;;;;;;5.25;1.85;;;17.10;99.90;;;;;;5063932;28;20462;-85
2022/08/22 05:15:58;;;;;;;3.67;1.90;;;17.10;99.90;;;;;;5062814;28;20050;-86
2022/08/22 05:18:28;;;;;;;6.43;2.17;;;17.10;99.90;;;;;;5063853;28;20554;-86
2022/08/22 05:20:56;;;;;;;6.97;2.85;;;17.10;99.90;;;;;;5058906;28;20029;-83
2022/08/22 05:23:36;;;;;;;5.07;2.10;;;17.10;99.90;;;;;;5074014;28;20024;-84
2022/08/22 05:26:04;;;;;;;5.38;2.10;;;17.20;99.90;;;;;;5063867;28;20335;-80
2022/08/22 05:28:36;;;;;;;5.05;2.13;;;17.10;99.90;;;;;;5076540;28;20049;-83
2022/08/22 05:31:08;;;;;;;8.15;2.00;;;17.10;99.90;;;;;;5074538;28;20024;-82
2022/08/22 05:33:46;;;;;;;5.32;2.15;;;17.20;99.90;;;;;;5063418;28;20424;-83
2022/08/22 05:36:22;;;;;;;6.03;2.55;;;17.30;99.90;;;;;;5061113;28;20025;-82
2022/08/22 05:38:55;;;;;;;5.75;2.47;;;17.30;99.90;;;;;;5051522;28;20196;-81
2022/08/22 05:41:24;;;;;;;6.32;2.45;;;17.40;99.90;;;;;;5055184;28;20460;-83
2022/08/22 05:43:52;;;;;;;7.80;2.40;;;17.40;99.90;;;;;;5042231;28;20028;-85
2022/08/22 05:46:18;;;;;;;9.63;2.40;;;;;;;;;;5054394;28;20040;-83
2022/08/22 05:49:10;;;;;;;5.93;2.00;;;17.50;99.90;;;;;;5055587;28;20121;-85
2022/08/22 05:51:42;;;;;;;9.55;2.65;;;17.50;99.90;;;;;;5061545;28;20032;-84
2022/08/22 05:54:14;;;;;;;6.00;2.30;;;17.60;99.90;;;;;;5064888;28;20130;-84
2022/08/22 05:56:50;;;;;;;8.77;3.25;;;17.60;99.90;;;;;;5065864;28;20050;-83
2022/08/22 05:59:23;;;;;;;5.18;2.30;;;17.70;99.90;;;;;;5044485;28;20053;-84
2022/08/22 06:01:50;;;;;;;6.18;2.45;;;;;;;;;;5050203;28;20048;-84
2022/08/22 06:04:50;;;;;;;7.20;2.20;;;17.90;99.90;;;;;;5066872;28;20515;-83
2022/08/22 06:07:32;;;;;;;7.47;2.60;;;18.00;99.90;;;;;;5061355;28;20393;-85
2022/08/22 06:10:16;;;;;;;9.88;2.70;;;18.10;99.90;;;;;;5060354;28;20029;-85
2022/08/22 06:12:51;;;;;;;7.03;1.98;;;18.20;99.90;;;;;;5060688;28;20021;-86
2022/08/22 06:15:28;;;;;;;5.57;2.13;;;18.30;99.90;;;;;;5059582;28;20029;-85
2022/08/22 06:18:03;;;;;;;9.55;2.35;;;18.30;99.90;;;;;;5053702;23;20059;-86
2022/08/22 06:20:44;;;;;;;8.00;2.22;;;18.30;99.90;;;;;;5061509;28;20028;-84
2022/08/22 06:23:19;;;;;;;7.65;2.13;;;18.40;99.90;;;;;;5079450;28;20020;-82
2022/08/22 06:25:48;;;;;;;5.30;2.22;;;18.50;99.90;;;;;;5072150;28;20033;-84
2022/08/22 06:28:22;;;;;;;7.22;2.17;;;18.50;99.90;;;;;;5054350;28;20033;-83
2022/08/22 06:30:52;;;;;;;6.63;2.20;;;18.50;99.90;;;;;;5058774;28;20052;-85
2022/08/22 06:33:23;;;;;;;6.70;2.10;;;18.60;99.90;;;;;;5062247;28;20013;-82
2022/08/22 06:39:01;;;;;;;8.13;1.88;;;18.90;99.90;;;;;;5079107;28;20540;-84
2022/08/22 06:41:31;;;;;;;4.25;1.80;;;18.90;99.90;;;;;;5060704;28;20023;-84
2022/08/22 06:43:58;;;;;;;5.40;2.17;;;19.10;99.90;;;;;;5060163;28;20074;-85
2022/08/22 06:46:28;;;;;;;6.35;2.38;;;19.20;99.90;;;;;;5078085;28;20032;-84
2022/08/22 06:48:55;;;;;;;5.60;1.90;;;19.10;99.90;;;;;;5081756;28;20035;-79
2022/08/22 06:51:25;;;;;;;5.70;1.90;;;19.70;99.90;;;;;;5071513;28;20024;-85
2022/08/22 06:53:54;;;;;;;4.40;1.88;;;19.60;99.90;;;;;;5065484;28;20051;-83
2022/08/22 06:56:25;;;;;;;5.07;1.50;;;19.70;99.90;;;;;;5081856;28;20028;-83
2022/08/22 06:58:58;;;;;;;4.72;1.70;;;19.80;99.90;;;;;;5063547;28;20041;-83
2022/08/22 07:01:41;;;;;;;5.28;1.73;;;19.90;99.70;;;;;;5076875;28;20029;-83
2022/08/22 07:04:09;;;;;;;7.07;2.15;;;20.10;99.40;;;;;;5076436;28;20020;-82
2022/08/22 07:06:37;;;;;;;5.78;2.08;;;20.30;98.90;;;;;;5082710;28;20036;-82
2022/08/22 07:09:05;;;;;;;6.78;2.17;;;20.40;98.40;;;;;;5080712;28;20021;-84
2022/08/22 07:11:35;;;;;;;6.68;2.13;;;20.40;98.60;;;;;;5068340;28;20021;-82
2022/08/22 07:14:10;;;;;;;6.53;2.20;;;20.50;98.50;;;;;;5058811;28;20108;-82
2022/08/22 07:16:52;;;;;;;4.07;1.55;;;20.60;98.10;;;;;;5067528;28;20034;-83
2022/08/22 07:19:44;;;;;;;7.63;1.92;;;20.60;98.30;;;;;;5072707;28;20021;-82
2022/08/22 07:22:22;;;;;;;3.42;1.80;;;20.80;97.90;;;;;;5046309;28;20032;-82
2022/08/22 07:25:13;;;;;;;4.78;1.67;;;20.90;97.60;;;;;;5081253;28;20107;-82
2022/08/22 07:27:54;;;;;;;5.05;2.08;;;21.20;97.00;;;;;;5082513;28;20031;-85
2022/08/22 07:30:22;;;;;;;4.53;1.83;;;21.40;96.90;;;;;;5078180;28;20481;-80
2022/08/22 07:33:05;;;;;;;7.07;2.05;;;21.50;96.40;;;;;;5085253;28;20028;-82
2022/08/22 07:35:44;;;;;;;4.45;1.77;;;21.70;95.70;;;;;;5064539;28;20028;-83
2022/08/22 07:38:41;;;;;;;5.90;1.50;;;21.80;95.30;;;;;;5067536;28;20020;-84
2022/08/22 07:41:07;;;;;;;6.65;2.28;;;21.90;95.30;;;;;;5059896;28;20043;-82
2022/08/22 07:43:41;;;;;;;4.25;1.73;;;22.00;95.10;;;;;;5072346;28;20012;-85
2022/08/22 07:46:29;;;;;;;6.90;2.00;;;22.30;94.20;;;;;;5067892;28;20025;-82
2022/08/22 07:49:07;;;;;;;5.90;2.03;;;22.30;94.30;;;;;;5060565;28;20028;-83
2022/08/22 07:51:39;;;;;;;4.53;1.65;;;22.60;93.90;;;;;;5079105;28;20020;-83
2022/08/22 07:54:09;;;;;;;5.30;1.70;;;22.70;93.50;;;;;;5080512;28;20023;-83
2022/08/22 07:56:41;;;;;;;4.80;1.70;;;22.90;92.90;;;;;;5072444;28;20035;-81
2022/08/22 07:59:15;;;;;;;4.60;1.85;;;22.90;92.40;;;;;;5067753;28;20331;-84
2022/08/22 08:01:50;;;;;;;5.47;1.77;;;23.10;91.90;;;;;;5068689;28;20032;-85
2022/08/22 08:04:22;;;;;;;5.95;2.58;;;23.10;92.00;;;;;;5079123;28;20095;-83
2022/08/22 08:06:51;;;;;;;4.75;1.88;;;23.20;91.20;;;;;;5069216;28;20389;-83
2022/08/22 08:09:18;;;;;;;3.88;2.08;;;23.30;91.60;;;;;;5086047;28;20398;-81
2022/08/22 08:11:46;;;;;;;9.35;4.90;;;23.70;90.40;;;;;;5087680;28;20048;-83
2022/08/22 08:14:15;;;;;;;4.82;2.10;;;23.60;90.30;;;;;;5088987;28;20036;-84
2022/08/22 08:16:46;;;;;;;4.18;1.98;;;24.10;88.50;;;;;;5084308;28;20021;-84
2022/08/22 08:19:14;;;;;;;5.18;2.30;;;24.20;86.70;;;;;;5060160;28;20025;-85
2022/08/22 08:21:48;;;;;;;6.10;2.42;;;24.20;87.00;;;;;;5083404;28;20433;-85
2022/08/22 08:24:19;;;;;;;6.50;2.15;;;24.10;85.80;;;;;;5081655;28;20020;-83
2022/08/22 08:29:39;;;;;;;9.05;2.38;;;24.20;86.10;;;;;;5076624;28;20359;-82
2022/08/22 08:32:08;;;;;;;6.38;2.00;;;24.40;86.00;;;;;;5066156;28;20116;-83
2022/08/22 08:34:37;;;;;;;7.10;2.72;;;24.60;84.50;;;;;;5064379;28;20043;-83
2022/08/22 08:37:25;;;;;;;5.07;2.00;;;25.00;82.90;;;;;;5075705;28;20466;-82
2022/08/22 08:39:55;;;;;;;6.90;2.05;;;25.00;83.40;;;;;;5078699;28;20031;-81
2022/08/22 08:46:06;;;;;;;8.60;2.33;;;25.60;79.90;;;;;;5009584;28;20123;-80
2022/08/22 08:49:02;;;;;;;7.95;2.78;;;25.50;80.20;;;;;;5037256;28;20034;-83
2022/08/22 08:51:51;;;;;;;5.88;2.40;;;25.60;79.70;;;;;;5067052;28;20497;-83
2022/08/22 08:54:44;;;;;;;8.68;2.38;;;25.60;79.70;;;;;;5044162;28;20025;-84
2022/08/22 08:57:11;;;;;;;6.18;2.30;;;;;;;;;;5085087;28;20050;-81
2022/08/22 09:00:05;;;;;;;5.60;2.20;;;25.70;80.00;;;;;;5067981;28;20482;-82
2022/08/22 09:02:36;;;;;;;6.47;2.30;;;25.80;79.90;;;;;;5059428;28;20040;-82
2022/08/22 09:05:25;;;;;;;5.60;2.35;;;25.80;79.60;;;;;;5086897;28;20029;-81
2022/08/22 09:08:32;;;;;;;4.65;1.95;;;26.00;78.70;;;;;;5085557;28;20029;-83
2022/08/22 09:11:29;;;;;;;5.80;2.25;;;26.00;78.20;;;;;;5059544;28;20119;-85
2022/08/22 09:14:25;;;;;;;6.97;2.97;;;26.10;78.00;;;;;;5086308;28;20385;-84
2022/08/22 09:17:15;;;;;;;6.32;2.38;;;26.40;76.10;;;;;;5067754;28;20056;-84
2022/08/22 09:20:09;;;;;;;7.90;2.40;;;26.40;76.30;;;;;;5079184;28;20048;-84
2022/08/22 09:23:24;;;;;;;7.20;2.30;;;26.40;75.80;;;;;;5079917;28;20013;-85
2022/08/22 09:25:54;;;;;;;5.75;2.40;;;26.70;74.00;;;;;;5091154;28;20025;-84
2022/08/22 09:28:37;;;;;;;5.32;2.42;;;26.70;73.90;;;;;;5081262;28;20458;-83
2022/08/22 09:31:23;;;;;;;5.22;2.80;;;26.80;74.00;;;;;;5090154;28;20035;-83
2022/08/22 09:34:01;;;;;;;7.57;2.45;;;26.70;73.10;;;;;;5084687;28;20035;-83
2022/08/22 09:36:45;;;;;;;7.82;2.22;;;26.80;73.30;;;;;;5072892;28;20035;-84
2022/08/22 09:39:15;;;;;;;6.60;2.33;;;26.90;72.20;;;;;;5090807;28;20025;-83
2022/08/22 09:42:01;;;;;;;6.80;2.47;;;26.80;72.10;;;;;;5089756;28;20035;-84
2022/08/22 09:45:14;;;;;;;4.50;2.08;;;27.10;71.70;;;;;;5084568;28;20029;-84
2022/08/22 09:47:54;;;;;;;8.75;2.17;;;27.10;70.60;;;;;;5002126;28;20022;-82
2022/08/22 09:50:38;;;;;;;5.20;2.25;;;27.20;71.60;;;;;;4991771;28;20030;-82
2022/08/22 09:53:10;;;;;;;6.30;2.63;;;27.40;70.30;;;;;;5057673;28;20037;-83
2022/08/22 09:56:03;;;;;;;4.22;2.00;;;27.60;69.80;;;;;;5074226;28;20060;-83
2022/08/22 09:58:42;;;;;;;7.82;2.20;;;27.60;69.30;;;;;;5058041;28;20051;-84
2022/08/22 10:01:17;;;;;;;6.50;1.90;;;;;;;;;;5081540;28;20021;-86
2022/08/22 10:04:20;;;;;;;4.68;2.22;;;27.90;67.20;;;;;;5090321;28;20021;-83
2022/08/22 10:06:57;;;;;;;6.00;2.42;;;27.90;66.90;;;;;;5090756;28;20539;-82
2022/08/22 10:09:27;;;;;;;5.95;2.10;;;28.00;65.70;;;;;;5089337;28;20033;-84
2022/08/22 10:11:57;;;;;;;7.72;2.75;;;28.00;66.00;;;;;;5070304;28;20032;-82
2022/08/22 10:15:03;;;;;;;6.07;2.60;;;28.00;65.20;;;;;;5089795;28;20028;-81
2022/08/22 10:17:35;;;;;;;7.57;2.60;;;28.20;63.30;;;;;;5048542;28;20665;-83
2022/08/22 10:20:30;;;;;;;7.80;2.20;;;28.10;63.80;;;;;;5068725;28;20268;-82
2022/08/22 10:23:18;;;;;;;5.95;2.67;;;28.00;63.40;;;;;;5074500;28;20040;-83
2022/08/22 10:25:53;;;;;;;7.68;2.50;;;28.00;63.00;;;;;;5073421;28;20028;-83
2022/08/22 10:28:50;;;;;;;7.30;2.20;;;28.40;61.30;;;;;;5067780;28;20665;-83
2022/08/22 10:31:38;;;;;;;4.35;1.95;;;28.40;61.50;;;;;;5068420;28;20505;-82
2022/08/22 10:34:22;;;;;;;7.30;2.13;;;28.80;59.50;;;;;;5085266;28;20380;-83
2022/08/22 10:37:14;;;;;;;4.65;2.22;;;28.60;59.90;;;;;;5073182;28;20035;-81
2022/08/22 10:39:57;;;;;;;5.18;2.20;;;28.60;60.70;;;;;;5081215;28;20538;-81
2022/08/22 10:42:26;;;;;;;5.60;2.22;;;27.70;59.40;;;;;;5069162;28;20491;-82
2022/08/22 10:45:20;;;;;;;4.25;2.40;;;29.00;59.40;;;;;;5085309;28;20033;-83
2022/08/22 10:47:52;;;;;;;6.38;2.45;;;29.10;58.90;;;;;;5081284;28;20107;-82
2022/08/22 10:50:32;;;;;;;4.80;2.20;;;29.00;59.20;;;;;;5064457;28;20040;-82
2022/08/22 10:53:34;;;;;;;5.82;2.35;;;29.10;59.50;;;;;;5051884;28;20082;-81
2022/08/22 10:56:19;;;;;;;6.05;2.40;;;29.30;58.70;;;;;;5080152;28;20029;-82
2022/08/22 10:58:49;;;;;;;6.57;2.08;;;29.30;58.80;;;;;;5077175;28;20021;-81
2022/08/22 11:01:17;;;;;;;6.25;2.22;;;29.40;57.30;;;;;;5049894;28;20036;-82
2022/08/22 11:03:46;;;;;;;7.32;2.22;;;29.50;57.10;;;;;;5064772;28;20033;-82
2022/08/22 11:06:30;;;;;;;6.97;2.57;;;29.70;56.80;;;;;;5083891;28;20031;-82
2022/08/22 11:09:13;;;;;;;6.32;2.40;;;29.70;57.10;;;;;;5084278;28;20031;-82
2022/08/22 11:11:45;;;;;;;4.78;2.35;;;29.80;56.70;;;;;;5086148;28;20058;-80
2022/08/22 11:14:23;;;;;;;6.55;2.42;;;29.80;57.00;;;;;;5055922;28;20046;-82
2022/08/22 11:17:07;;;;;;;4.70;2.55;;;29.70;56.20;;;;;;5077063;28;20029;-81
2022/08/22 11:20:00;;;;;;;7.47;2.38;;;29.70;56.90;;;;;;5058384;28;20029;-81
2022/08/22 11:22:33;;;;;;;6.03;2.33;;;29.80;57.20;;;;;;5061295;28;20017;-81
2022/08/22 11:25:10;;;;;;;4.18;2.65;;;29.60;56.30;;;;;;5073180;28;20059;-84
2022/08/22 11:27:51;;;;;;;5.78;2.08;;;29.30;56.70;;;;;;5081741;28;20037;-82
2022/08/22 11:30:19;;;;;;;5.22;2.67;;;29.40;57.60;;;;;;5084774;28;20020;-80
2022/08/22 11:33:07;;;;;;;6.07;2.55;;;29.40;57.50;;;;;;5064760;28;20051;-82
2022/08/22 11:35:43;;;;;;;5.00;2.45;;;29.50;57.20;;;;;;5074761;28;20020;-85
2022/08/22 11:38:34;;;;;;;14.10;2.47;;;29.40;57.30;;;;;;5078745;28;20025;-82
2022/08/22 11:41:25;;;;;;;5.57;2.30;;;29.40;58.20;;;;;;5080738;28;20501;-81
2022/08/22 11:44:05;;;;;;;4.35;2.10;;;29.50;57.20;;;;;;5042505;28;20043;-80
2022/08/22 11:46:32;;;;;;;;;;;29.70;57.10;;;;;;5065413;28;20028;-82
2022/08/22 11:49:19;;;;;;;5.00;2.30;;;30.00;56.40;;;;;;5071268;28;19932;-81
2022/08/22 11:52:06;;;;;;;11.68;6.75;;;30.00;56.90;;;;;;5061225;28;20111;-82
2022/08/22 11:55:10;;;;;;;4.30;2.13;;;30.20;57.00;;;;;;5073742;28;20433;-83
2022/08/22 11:57:40;;;;;;;4.63;2.03;;;30.40;55.80;;;;;;5066650;28;20020;-80
2022/08/22 12:00:25;;;;;;;5.40;2.08;;;30.50;55.70;;;;;;5077717;28;20024;-83
2022/08/22 12:03:14;;;;;;;7.30;2.35;;;30.50;55.20;;;;;;5080921;28;20072;-82
2022/08/22 12:05:47;;;;;;;6.63;2.00;;;30.60;55.20;;;;;;5080293;28;20052;-83
2022/08/22 12:08:28;;;;;;;5.78;2.22;;;30.70;55.10;;;;;;5091925;28;20033;-81
2022/08/22 12:11:21;;;;;;;4.03;2.28;;;30.80;54.30;;;;;;5080439;28;20033;-82
2022/08/22 12:14:22;;;;;;;6.40;2.30;;;30.60;54.20;;;;;;5079157;28;20028;-81
2022/08/22 12:17:08;;;;;;;4.18;2.00;;;30.50;54.30;;;;;;5047993;28;20135;-82
2022/08/22 12:22:45;;;;;;;4.68;2.08;;;30.60;54.00;;;;;;5058093;28;20056;-82
2022/08/22 12:25:14;;;;;;;4.78;2.30;;;30.90;54.10;;;;;;5051743;28;20044;-82
2022/08/22 12:27:48;;;;;;;4.00;2.10;;;30.60;54.20;;;;;;5073104;28;20093;-82
2022/08/22 12:30:32;;;;;;;3.85;2.03;;;30.60;54.20;;;;;;5056798;28;20055;-82
2022/08/22 12:33:13;;;;;;;4.55;2.20;;;30.40;54.80;;;;;;5058880;28;20028;-82
2022/08/22 12:36:05;;;;;;;5.93;2.15;;;30.10;54.70;;;;;;5073686;28;20119;-82
2022/08/22 12:39:00;;;;;;;4.55;1.83;;;29.90;55.30;;;;;;5061800;28;20505;-82
2022/08/22 12:41:36;;;;;;;6.00;2.40;;;29.30;55.50;;;;;;5059424;28;20104;-81
2022/08/22 12:44:05;;;;;;;5.43;2.70;;;29.30;56.00;;;;;;5057267;28;20116;-81
2022/08/22 12:47:04;;;;;;;6.50;2.67;;;29.20;56.50;;;;;;5058410;28;20049;-81
2022/08/22 12:49:39;;;;;;;5.53;2.20;;;29.50;55.90;;;;;;5053995;28;20025;-82
2022/08/22 12:52:31;;;;;;;8.43;5.32;;;29.70;56.80;;;;;;5053953;28;20033;-81
2022/08/22 12:55:11;;;;;;;3.65;1.92;;;30.10;56.00;;;;;;5051382;28;20040;-81
2022/08/22 12:58:13;;;;;;;3.80;2.10;;;30.30;53.70;;;;;;5050776;28;20025;-81
2022/08/22 13:00:43;;;;;;;8.43;3.20;;;30.20;53.70;;;;;;5065585;28;20033;-81
2022/08/22 13:03:26;;;;;;;4.00;1.90;;;29.80;54.30;;;;;;5056540;28;20044;-84
2022/08/22 13:05:54;;;;;;;5.25;2.28;;;29.60;54.80;;;;;;5048431;28;20079;-81
2022/08/22 13:08:41;;;;;;;3.92;2.13;;;29.40;54.50;;;;;;5060287;28;20021;-81
2022/08/22 13:11:11;;;;;;;4.65;1.95;;;29.40;54.40;;;;;;5064656;28;20083;-80
2022/08/22 13:13:42;;;;;;;8.38;2.60;;;29.10;55.30;;;;;;5057411;28;20119;-81
2022/08/22 13:16:14;;;;;;;6.50;2.42;;;29.20;55.40;;;;;;5058817;28;20033;-82
2022/08/22 13:19:15;;;;;;;6.35;2.45;;;29.20;55.60;;;;;;5063225;28;20031;-81
2022/08/22 13:21:52;;;;;;;3.75;1.95;;;29.10;55.50;;;;;;5041666;28;20467;-83
2022/08/22 13:24:45;;;;;;;4.55;2.00;;;29.10;55.90;;;;;;5058187;28;20021;-81
2022/08/22 13:27:21;;;;;;;4.65;2.00;;;29.00;56.10;;;;;;5048837;28;20032;-80
2022/08/22 13:30:04;;;;;;;5.82;2.22;;;29.10;56.20;;;;;;5056280;28;20021;-80
2022/08/22 13:32:43;;;;;;;4.82;2.20;;;29.20;56.00;;;;;;5066183;28;20504;-79
2022/08/22 13:35:16;;;;;;;4.57;2.10;;;29.40;55.90;;;;;;5059568;28;20033;-81
2022/08/22 13:37:44;;;;;;;6.50;1.98;;;29.60;55.20;;;;;;5059379;28;20029;-81
2022/08/22 13:40:20;;;;;;;4.60;2.10;;;30.10;53.80;;;;;;5066064;28;20028;-80
2022/08/22 13:42:49;;;;;;;4.43;1.98;;;30.10;53.80;;;;;;5079235;28;20005;-80
2022/08/22 13:45:21;;;;;;;3.53;1.70;;;30.00;54.20;;;;;;5063385;28;20044;-78
2022/08/22 13:47:52;;;;;;;5.47;2.42;;;30.30;54.00;;;;;;5070415;28;20080;-81
2022/08/22 13:50:25;;;;;;;7.55;2.25;;;30.60;53.30;;;;;;5084504;28;20021;-82
2022/08/22 13:52:57;;;;;;;3.50;2.15;;;30.70;53.70;;;;;;5076137;28;20033;-79
2022/08/22 13:55:41;;;;;;;6.72;2.40;;;31.10;52.70;;;;;;5088648;28;20044;-80
2022/08/22 13:58:19;;;;;;;7.13;2.20;;;31.10;53.00;;;;;;5057123;28;20033;-81
2022/08/22 14:01:19;;;;;;;4.05;1.73;;;31.20;52.00;;;;;;5056127;28;20033;-81
2022/08/22 14:03:59;;;;;;;5.22;2.60;;;31.50;51.70;;;;;;5068681;28;20029;-79
2022/08/22 14:06:52;;;;;;;6.70;2.17;;;31.30;51.10;;;;;;5066449;28;20047;-81
2022/08/22 14:09:44;;;;;;;9.60;2.58;;;31.20;52.10;;;;;;5075367;28;20055;-79
2022/08/22 14:12:15;;;;;;;5.40;2.63;;;31.10;52.30;;;;;;5094453;28;20014;-80
2022/08/22 14:14:45;;;;;;;4.57;1.95;;;30.90;52.50;;;;;;5081744;28;20017;-83
2022/08/22 14:17:18;;;;;;;4.82;1.67;;;30.90;52.80;;;;;;5088297;28;20013;-81